createdAt,value
2023-06-22T00:00:00.363Z,24.03
2023-06-22T00:02:26.922Z,23.99
2023-06-22T00:04:53.447Z,23.98
2023-06-22T00:07:20.016Z,23.93
2023-06-22T00:09:46.764Z,23.89
2023-06-22T00:12:13.221Z,23.88
2023-06-22T00:14:39.689Z,23.84
2023-06-22T00:17:06.238Z,23.80
2023-06-22T00:19:33.601Z,23.77
2023-06-22T00:22:01.201Z,23.75
2023-06-22T00:24:27.758Z,23.71
2023-06-22T00:26:54.764Z,23.69
2023-06-22T00:29:22.166Z,23.64
2023-06-22T00:31:49.596Z,23.61
2023-06-22T00:34:17.011Z,23.57
2023-06-22T00:36:43.514Z,23.54
2023-06-22T00:39:10.832Z,23.51
2023-06-22T00:41:37.299Z,23.47
2023-06-22T00:44:05.134Z,23.44
2023-06-22T00:46:31.836Z,23.41
2023-06-22T00:49:01.020Z,23.39
2023-06-22T00:51:28.781Z,23.36
2023-06-22T00:53:55.570Z,23.32
2023-06-22T00:56:25.983Z,23.28
2023-06-22T00:58:58.222Z,23.24
2023-06-22T01:01:25.038Z,23.19
2023-06-22T01:03:52.763Z,23.21
2023-06-22T01:06:28.087Z,23.17
2023-06-22T01:09:16.205Z,23.12
2023-06-22T01:11:47.894Z,23.09
2023-06-22T01:14:27.173Z,23.04
2023-06-22T01:16:58.071Z,23.03
2023-06-22T01:19:36.805Z,22.99
2023-06-22T01:22:06.287Z,22.97
2023-06-22T01:25:10.576Z,22.90
2023-06-22T01:27:57.715Z,22.86
2023-06-22T01:30:27.509Z,22.85
2023-06-22T01:32:56.497Z,22.82
2023-06-22T01:35:26.024Z,22.80
2023-06-22T01:37:53.120Z,22.76
2023-06-22T01:40:21.061Z,22.71
2023-06-22T01:42:49.196Z,22.71
2023-06-22T01:45:16.684Z,22.68
2023-06-22T01:47:43.569Z,22.65
2023-06-22T01:50:10.640Z,22.62
2023-06-22T01:52:37.296Z,22.60
2023-06-22T01:55:05.695Z,22.55
2023-06-22T01:57:32.953Z,22.55
2023-06-22T02:00:05.779Z,22.40
2023-06-22T02:03:16.488Z,22.44
2023-06-22T02:06:08.778Z,22.40
2023-06-22T02:08:47.366Z,22.38
2023-06-22T02:11:17.605Z,22.37
2023-06-22T02:13:44.349Z,22.35
2023-06-22T02:16:12.835Z,22.30
2023-06-22T02:18:47.281Z,22.28
2023-06-22T02:21:13.782Z,22.26
2023-06-22T02:23:40.236Z,22.24
2023-06-22T02:26:06.694Z,22.18
2023-06-22T02:28:33.162Z,22.15
2023-06-22T02:30:59.698Z,22.15
2023-06-22T02:33:26.154Z,22.13
2023-06-22T02:35:52.650Z,22.11
2023-06-22T02:38:20.421Z,22.09
2023-06-22T02:40:47.590Z,22.06
2023-06-22T02:43:14.489Z,22.04
2023-06-22T02:45:40.930Z,22.02
2023-06-22T02:48:07.510Z,22.00
2023-06-22T02:50:34.656Z,21.98
2023-06-22T02:53:01.398Z,21.95
2023-06-22T02:55:30.763Z,21.91
2023-06-22T02:58:00.577Z,21.90
2023-06-22T03:00:32.029Z,21.87
2023-06-22T03:02:59.342Z,21.84
2023-06-22T03:05:25.954Z,21.82
2023-06-22T03:07:53.211Z,21.80
2023-06-22T03:10:19.687Z,21.78
2023-06-22T03:12:46.246Z,21.75
2023-06-22T03:15:13.702Z,21.73
2023-06-22T03:17:42.353Z,21.71
2023-06-22T03:20:11.353Z,21.68
2023-06-22T03:22:39.322Z,21.64
2023-06-22T03:25:11.396Z,21.62
2023-06-22T03:27:43.380Z,21.61
2023-06-22T03:30:12.576Z,21.59
2023-06-22T03:32:40.386Z,21.55
2023-06-22T03:35:07.589Z,21.53
2023-06-22T03:37:36.499Z,21.54
2023-06-22T03:40:06.257Z,21.51
2023-06-22T03:42:35.687Z,21.48
2023-06-22T03:45:04.527Z,21.48
2023-06-22T03:47:31.198Z,21.46
2023-06-22T03:49:58.998Z,21.45
2023-06-22T03:52:26.362Z,21.46
2023-06-22T03:54:53.047Z,21.45
2023-06-22T03:57:19.600Z,21.44
2023-06-22T03:59:46.155Z,21.42
2023-06-22T04:02:13.072Z,21.43
2023-06-22T04:04:40.417Z,21.43
2023-06-22T04:07:07.401Z,21.42
2023-06-22T04:09:34.152Z,21.42
2023-06-22T04:12:00.576Z,21.39
2023-06-22T04:14:27.037Z,21.38
2023-06-22T04:16:53.503Z,21.40
2023-06-22T04:19:19.979Z,21.40
2023-06-22T04:21:46.761Z,21.39
2023-06-22T04:24:13.522Z,21.40
2023-06-22T04:26:42.462Z,21.40
2023-06-22T04:29:09.771Z,21.39
2023-06-22T04:31:39.515Z,21.40
2023-06-22T04:34:07.613Z,21.39
2023-06-22T04:36:39.098Z,21.40
2023-06-22T04:39:10.908Z,21.37
2023-06-22T04:41:44.929Z,21.39
2023-06-22T04:44:24.692Z,21.39
2023-06-22T04:47:03.240Z,21.41
2023-06-22T04:49:34.348Z,21.40
2023-06-22T04:52:02.111Z,21.42
2023-06-22T04:54:28.584Z,21.42
2023-06-22T04:56:57.508Z,21.45
2023-06-22T04:59:29.036Z,21.44
2023-06-22T05:01:56.557Z,21.44
2023-06-22T05:04:26.829Z,21.47
2023-06-22T05:06:53.645Z,21.48
2023-06-22T05:09:20.211Z,21.50
2023-06-22T05:11:47.105Z,21.51
2023-06-22T05:14:14.390Z,21.52
2023-06-22T05:16:43.039Z,21.55
2023-06-22T05:19:10.133Z,21.55
2023-06-22T05:21:36.816Z,21.58
2023-06-22T05:24:03.959Z,21.60
2023-06-22T05:26:32.017Z,21.63
2023-06-22T05:28:58.779Z,21.64
2023-06-22T05:31:25.505Z,21.69
2023-06-22T05:33:54.681Z,21.70
2023-06-22T05:36:22.472Z,21.76
2023-06-22T05:38:48.917Z,21.78
2023-06-22T05:41:15.395Z,21.79
2023-06-22T05:43:42.076Z,21.82
2023-06-22T05:46:08.678Z,21.84
2023-06-22T05:48:35.144Z,21.88
2023-06-22T05:51:01.630Z,21.92
2023-06-22T05:53:28.311Z,21.94
2023-06-22T05:55:54.838Z,21.97
2023-06-22T05:58:21.405Z,22.00
2023-06-22T06:00:48.263Z,22.00
2023-06-22T06:03:18.084Z,22.04
2023-06-22T06:05:45.973Z,22.05
2023-06-22T06:08:13.214Z,22.08
2023-06-22T06:10:40.419Z,22.10
2023-06-22T06:13:07.174Z,22.13
2023-06-22T06:15:34.771Z,22.15
2023-06-22T06:18:01.382Z,22.16
2023-06-22T06:20:31.230Z,22.17
2023-06-22T06:22:58.267Z,22.19
2023-06-22T06:25:24.833Z,22.20
2023-06-22T06:27:52.611Z,22.27
2023-06-22T06:30:19.963Z,22.29
2023-06-22T06:32:47.836Z,22.31
2023-06-22T06:35:17.413Z,22.33
2023-06-22T06:37:46.190Z,22.36
2023-06-22T06:40:14.351Z,22.38
2023-06-22T06:42:43.190Z,22.39
2023-06-22T06:45:10.597Z,22.43
2023-06-22T06:47:37.383Z,22.43
2023-06-22T06:50:05.786Z,22.46
2023-06-22T06:52:32.289Z,22.43
2023-06-22T06:54:58.761Z,22.49
2023-06-22T06:57:29.745Z,22.52
2023-06-22T06:59:57.374Z,22.55
2023-06-22T07:02:24.975Z,22.55
2023-06-22T07:04:51.717Z,22.60
2023-06-22T07:07:18.173Z,22.62
2023-06-22T07:09:44.627Z,22.65
2023-06-22T07:12:11.173Z,22.68
2023-06-22T07:14:37.661Z,22.68
2023-06-22T07:17:04.476Z,22.72
2023-06-22T07:19:32.385Z,22.74
2023-06-22T07:21:58.820Z,22.79
2023-06-22T07:24:25.825Z,22.80
2023-06-22T07:26:52.668Z,22.80
2023-06-22T07:29:20.987Z,22.85
2023-06-22T07:31:48.424Z,22.86
2023-06-22T07:34:14.978Z,22.90
2023-06-22T07:36:41.526Z,22.94
2023-06-22T07:39:08.026Z,22.95
2023-06-22T07:41:34.481Z,23.01
2023-06-22T07:44:01.054Z,23.03
2023-06-22T07:46:27.750Z,23.08
2023-06-22T07:48:56.506Z,23.11
2023-06-22T07:51:23.407Z,23.14
2023-06-22T07:53:49.890Z,23.17
2023-06-22T07:56:20.071Z,23.22
2023-06-22T07:58:47.293Z,23.25
2023-06-22T08:01:15.122Z,23.30
2023-06-22T08:03:41.813Z,23.30
2023-06-22T08:06:10.202Z,23.35
2023-06-22T08:08:37.676Z,23.40
2023-06-22T08:11:04.249Z,23.43
2023-06-22T08:13:30.750Z,23.45
2023-06-22T08:15:57.216Z,23.50
2023-06-22T08:18:23.648Z,23.52
2023-06-22T08:20:50.813Z,23.56
2023-06-22T08:23:17.555Z,23.60
2023-06-22T08:25:44.103Z,23.64
2023-06-22T08:28:10.651Z,23.66
2023-06-22T08:30:37.141Z,23.68
2023-06-22T08:33:03.990Z,23.73
2023-06-22T08:35:31.557Z,23.73
2023-06-22T08:37:59.110Z,23.79
2023-06-22T08:40:25.646Z,23.81
2023-06-22T08:42:52.164Z,23.87
2023-06-22T08:45:18.828Z,23.89
2023-06-22T08:47:45.336Z,23.93
2023-06-22T08:50:13.593Z,23.96
2023-06-22T08:52:44.255Z,23.98
2023-06-22T08:55:11.785Z,24.03
2023-06-22T08:57:40.120Z,24.07
2023-06-22T09:00:17.075Z,24.10
2023-06-22T09:02:45.024Z,24.13
2023-06-22T09:05:11.939Z,24.15
2023-06-22T09:07:38.894Z,24.19
2023-06-22T09:10:06.440Z,24.20
2023-06-22T09:12:33.820Z,24.23
2023-06-22T09:15:01.667Z,24.28
2023-06-22T09:17:28.285Z,24.33
2023-06-22T09:19:54.954Z,24.33
2023-06-22T09:22:21.821Z,24.39
2023-06-22T09:24:48.357Z,24.42
2023-06-22T09:27:14.915Z,24.45
2023-06-22T09:29:41.392Z,24.50
2023-06-22T09:32:08.333Z,24.52
2023-06-22T09:34:34.909Z,24.58
2023-06-22T09:37:04.099Z,24.60
2023-06-22T09:39:30.566Z,24.63
2023-06-22T09:42:01.355Z,24.65
2023-06-22T09:44:27.826Z,24.68
2023-06-22T09:46:54.280Z,24.68
2023-06-22T09:49:30.836Z,24.73
2023-06-22T09:52:07.563Z,24.77
2023-06-22T09:54:34.125Z,24.80
2023-06-22T09:57:00.652Z,24.81
2023-06-22T09:59:28.102Z,24.83
2023-06-22T10:01:54.709Z,24.88
2023-06-22T10:04:21.289Z,24.92
2023-06-22T10:06:48.703Z,24.93
2023-06-22T10:09:15.158Z,24.95
2023-06-22T10:11:41.636Z,24.98
2023-06-22T10:14:08.079Z,25.00
2023-06-22T10:16:36.531Z,25.01
2023-06-22T10:19:03.180Z,25.05
2023-06-22T10:21:30.129Z,25.08
2023-06-22T10:23:56.883Z,25.10
2023-06-22T10:26:23.551Z,25.13
2023-06-22T10:28:55.373Z,25.16
2023-06-22T10:31:28.547Z,25.19
2023-06-22T10:33:56.225Z,25.20
2023-06-22T10:36:23.853Z,25.23
2023-06-22T10:38:50.916Z,25.24
2023-06-22T10:41:18.087Z,25.28
2023-06-22T10:43:44.572Z,25.30
2023-06-22T10:46:11.082Z,25.32
2023-06-22T10:48:37.560Z,25.34
2023-06-22T10:51:04.013Z,25.36
2023-06-22T10:53:30.473Z,25.35
2023-06-22T10:55:57.939Z,25.36
2023-06-22T10:58:24.668Z,25.43
2023-06-22T11:00:51.147Z,25.46
2023-06-22T11:03:17.742Z,25.50
2023-06-22T11:05:44.403Z,25.52
2023-06-22T11:08:10.877Z,25.55
2023-06-22T11:10:37.543Z,25.59
2023-06-22T11:13:05.280Z,25.62
2023-06-22T11:15:31.766Z,25.64
2023-06-22T11:17:58.317Z,25.69
2023-06-22T11:20:24.823Z,25.74
2023-06-22T11:22:51.270Z,25.76
2023-06-22T11:25:17.868Z,25.82
2023-06-22T11:27:44.315Z,25.85
2023-06-22T11:30:11.118Z,25.90
2023-06-22T11:32:37.722Z,25.94
2023-06-22T11:35:04.558Z,25.98
2023-06-22T11:37:31.033Z,26.03
2023-06-22T11:40:05.993Z,26.05
2023-06-22T11:42:33.442Z,26.11
2023-06-22T11:44:59.996Z,26.13
2023-06-22T11:47:26.576Z,26.15
2023-06-22T11:49:53.090Z,26.22
2023-06-22T11:52:20.397Z,26.24
2023-06-22T11:54:46.913Z,26.26
2023-06-22T11:57:13.734Z,26.30
2023-06-22T11:59:40.268Z,26.34
2023-06-22T12:02:08.527Z,26.37
2023-06-22T12:04:35.111Z,26.36
2023-06-22T12:07:01.742Z,26.43
2023-06-22T12:09:28.221Z,26.45
2023-06-22T12:11:54.819Z,26.48
2023-06-22T12:14:21.371Z,26.50
2023-06-22T12:16:47.847Z,26.54
2023-06-22T12:19:14.280Z,26.57
2023-06-22T12:21:41.836Z,26.60
2023-06-22T12:24:08.426Z,26.65
2023-06-22T12:26:34.851Z,26.69
2023-06-22T12:29:01.310Z,26.72
2023-06-22T12:31:27.775Z,26.75
2023-06-22T12:33:54.384Z,26.74
2023-06-22T12:36:20.863Z,26.80
2023-06-22T12:38:47.338Z,26.81
2023-06-22T12:41:13.856Z,26.85
2023-06-22T12:43:41.234Z,26.87
2023-06-22T12:46:07.717Z,26.86
2023-06-22T12:48:34.179Z,26.90
2023-06-22T12:51:00.655Z,26.87
2023-06-22T12:53:28.366Z,26.95
2023-06-22T12:55:55.255Z,26.98
2023-06-22T12:58:21.722Z,26.99
2023-06-22T13:00:48.196Z,27.02
2023-06-22T13:03:14.952Z,27.05
2023-06-22T13:05:41.537Z,27.07
2023-06-22T13:08:12.678Z,27.03
2023-06-22T13:10:39.650Z,27.08
2023-06-22T13:13:06.129Z,27.11
2023-06-22T13:15:32.935Z,27.13
2023-06-22T13:18:00.078Z,27.13
2023-06-22T13:20:26.704Z,27.14
2023-06-22T13:22:54.660Z,27.17
2023-06-22T13:25:24.088Z,27.16
2023-06-22T13:27:50.624Z,27.19
2023-06-22T13:30:17.185Z,27.20
2023-06-22T13:32:44.044Z,27.20
2023-06-22T13:35:12.036Z,27.20
2023-06-22T13:37:38.566Z,27.20
2023-06-22T13:40:08.953Z,27.20
2023-06-22T13:42:35.661Z,27.20
2023-06-22T13:45:02.923Z,27.22
2023-06-22T13:47:31.352Z,27.22
2023-06-22T13:49:58.864Z,27.21
2023-06-22T13:52:25.844Z,27.23
2023-06-22T13:54:52.466Z,27.20
2023-06-22T13:57:18.938Z,27.24
2023-06-22T13:59:45.440Z,27.25
2023-06-22T14:02:11.889Z,27.26
2023-06-22T14:04:39.318Z,27.27
2023-06-22T14:07:05.907Z,27.27
2023-06-22T14:09:32.342Z,27.26
2023-06-22T14:11:58.829Z,27.27
2023-06-22T14:14:25.465Z,27.29
2023-06-22T14:16:51.994Z,27.25
2023-06-22T14:19:19.500Z,27.28
2023-06-22T14:21:46.070Z,27.27
2023-06-22T14:24:12.559Z,27.31
2023-06-22T14:26:39.056Z,27.27
2023-06-22T14:29:05.501Z,27.30
2023-06-22T14:31:32.029Z,27.31
2023-06-22T14:33:58.600Z,27.30
2023-06-22T14:36:25.098Z,27.31
2023-06-22T14:38:51.594Z,27.31
2023-06-22T14:41:18.871Z,27.32
2023-06-22T14:43:50.091Z,27.32
2023-06-22T14:46:18.633Z,27.34
2023-06-22T14:48:45.931Z,27.35
2023-06-22T14:51:16.530Z,27.36
2023-06-22T14:53:46.249Z,27.36
2023-06-22T14:56:13.885Z,27.36
2023-06-22T14:58:42.166Z,27.36
2023-06-22T15:01:09.537Z,27.35
2023-06-22T15:03:37.051Z,27.36
2023-06-22T15:06:04.937Z,27.37
2023-06-22T15:08:31.486Z,27.36
2023-06-22T15:11:02.643Z,27.36
2023-06-22T15:13:31.279Z,27.35
2023-06-22T15:15:57.768Z,27.33
2023-06-22T15:18:24.279Z,27.34
2023-06-22T15:20:50.765Z,27.34
2023-06-22T15:23:18.401Z,27.35
2023-06-22T15:25:45.935Z,27.33
2023-06-22T15:28:13.010Z,27.31
2023-06-22T15:30:39.703Z,27.31
2023-06-22T15:33:06.278Z,27.29
2023-06-22T15:35:32.830Z,27.27
2023-06-22T15:38:00.490Z,27.26
2023-06-22T15:40:27.010Z,27.23
2023-06-22T15:42:54.176Z,27.23
2023-06-22T15:45:20.977Z,27.20
2023-06-22T15:47:47.615Z,27.19
2023-06-22T15:50:14.469Z,27.15
2023-06-22T15:52:41.933Z,27.16
2023-06-22T15:55:10.465Z,27.13
2023-06-22T15:57:37.029Z,27.14
2023-06-22T16:00:05.654Z,27.13
2023-06-22T16:02:33.872Z,27.13
2023-06-22T16:05:02.099Z,27.10
2023-06-22T16:07:28.592Z,27.10
2023-06-22T16:09:55.277Z,27.06
2023-06-22T16:12:21.784Z,27.07
2023-06-22T16:14:48.213Z,27.04
2023-06-22T16:17:14.704Z,27.02
2023-06-22T16:19:41.144Z,27.03
2023-06-22T16:22:07.665Z,27.01
2023-06-22T16:24:34.137Z,27.01
2023-06-22T16:27:00.612Z,26.98
2023-06-22T16:29:27.156Z,26.99
2023-06-22T16:31:53.621Z,26.97
2023-06-22T16:34:20.132Z,26.97
2023-06-22T16:36:46.583Z,26.96
2023-06-22T16:39:13.074Z,26.95
2023-06-22T16:41:39.513Z,26.93
2023-06-22T16:44:07.602Z,26.92
2023-06-22T16:46:35.525Z,26.91
2023-06-22T16:49:02.095Z,26.90
2023-06-22T16:51:28.526Z,26.87
2023-06-22T16:53:59.465Z,26.88
2023-06-22T16:56:27.562Z,26.84
2023-06-22T16:59:06.971Z,26.85
2023-06-22T17:01:35.618Z,26.85
2023-06-22T17:04:10.032Z,26.81
2023-06-22T17:06:42.591Z,26.80
2023-06-22T17:09:13.999Z,26.81
2023-06-22T17:11:41.287Z,26.79
2023-06-22T17:14:07.892Z,26.78
2023-06-22T17:16:36.245Z,26.75
2023-06-22T17:19:06.938Z,26.75
2023-06-22T17:21:34.230Z,26.71
2023-06-22T17:24:02.135Z,26.73
2023-06-22T17:26:28.653Z,26.70
2023-06-22T17:29:01.975Z,26.68
2023-06-22T17:31:44.631Z,26.63
2023-06-22T17:34:16.024Z,26.66
2023-06-22T17:36:50.873Z,26.64
2023-06-22T17:39:22.590Z,26.61
2023-06-22T17:41:50.456Z,26.59
2023-06-22T17:44:24.254Z,26.56
2023-06-22T17:46:59.234Z,26.52
2023-06-22T17:49:30.888Z,26.49
2023-06-22T17:51:57.905Z,26.48
2023-06-22T17:54:31.261Z,26.47
2023-06-22T17:57:17.580Z,26.41
2023-06-22T17:59:51.279Z,26.42
2023-06-22T18:02:25.230Z,26.39
2023-06-22T18:04:51.900Z,26.29
2023-06-22T18:07:18.427Z,26.28
2023-06-22T18:09:46.392Z,26.24
2023-06-22T18:12:13.803Z,26.18
2023-06-22T18:14:42.727Z,26.17
2023-06-22T18:17:09.812Z,26.09
2023-06-22T18:19:38.984Z,26.07
2023-06-22T18:22:06.394Z,26.02
2023-06-22T18:24:34.339Z,25.98
2023-06-22T18:27:03.449Z,25.93
2023-06-22T18:29:31.759Z,25.87
2023-06-22T18:31:58.345Z,25.80
2023-06-22T18:34:26.312Z,25.73
2023-06-22T18:36:55.854Z,25.69
2023-06-22T18:39:23.606Z,25.64
2023-06-22T18:41:56.207Z,25.57
2023-06-22T18:44:27.272Z,25.50
2023-06-22T18:46:58.575Z,25.44
2023-06-22T18:49:26.776Z,25.38
2023-06-22T18:51:56.266Z,25.31
2023-06-22T18:54:36.229Z,25.27
2023-06-22T18:57:12.697Z,25.20
2023-06-22T18:59:43.965Z,25.14
2023-06-22T19:02:13.781Z,25.09
2023-06-22T19:04:43.149Z,25.04
2023-06-22T19:07:10.417Z,24.99
2023-06-22T19:09:37.389Z,24.95
2023-06-22T19:12:20.885Z,24.90
2023-06-22T19:15:16.859Z,24.84
2023-06-22T19:17:44.146Z,24.84
2023-06-22T19:20:12.484Z,24.80
2023-06-22T19:22:46.879Z,24.77
2023-06-22T19:25:20.897Z,24.73
2023-06-22T19:27:55.687Z,24.65
2023-06-22T19:30:22.818Z,24.57
2023-06-22T19:32:50.094Z,24.61
2023-06-22T19:35:19.391Z,24.60
2023-06-22T19:37:47.091Z,24.57
2023-06-22T19:40:15.247Z,24.51
2023-06-22T19:42:44.957Z,24.50
2023-06-22T19:45:17.671Z,24.49
2023-06-22T19:47:46.587Z,24.47
2023-06-22T19:50:13.419Z,24.45
2023-06-22T19:52:42.052Z,24.40
2023-06-22T19:55:10.514Z,24.39
2023-06-22T19:57:37.950Z,24.37
2023-06-22T20:00:13.281Z,24.35
2023-06-22T20:02:44.622Z,24.33
2023-06-22T20:05:13.758Z,24.32
2023-06-22T20:07:42.998Z,24.31
2023-06-22T20:10:15.388Z,24.28
2023-06-22T20:12:42.139Z,24.25
2023-06-22T20:15:28.102Z,24.22
2023-06-22T20:18:14.110Z,24.22
2023-06-22T20:20:46.046Z,24.18
2023-06-22T20:23:18.105Z,24.17
2023-06-22T20:25:46.270Z,24.16
2023-06-22T20:28:16.736Z,24.13
2023-06-22T20:31:07.393Z,24.10
2023-06-22T20:33:35.084Z,24.09
2023-06-22T20:36:02.314Z,24.08
2023-06-22T20:38:29.521Z,24.06
2023-06-22T20:40:56.902Z,24.03
2023-06-22T20:43:24.813Z,24.03
2023-06-22T20:45:57.371Z,24.01
2023-06-22T20:48:38.015Z,23.98
2023-06-22T20:51:05.685Z,23.93
2023-06-22T20:53:32.820Z,23.92
2023-06-22T20:55:59.690Z,23.90
2023-06-22T20:58:26.149Z,23.88
2023-06-22T21:00:52.617Z,23.85
2023-06-22T21:03:19.223Z,23.83
2023-06-22T21:05:45.900Z,23.80
2023-06-22T21:08:12.395Z,23.80
2023-06-22T21:10:38.825Z,23.76
2023-06-22T21:13:05.295Z,23.75
2023-06-22T21:15:31.994Z,23.73
2023-06-22T21:17:58.655Z,23.72
2023-06-22T21:20:25.148Z,23.69
2023-06-22T21:22:51.625Z,23.66
2023-06-22T21:25:18.082Z,23.64
2023-06-22T21:27:44.610Z,23.61
2023-06-22T21:30:12.842Z,23.59
2023-06-22T21:32:42.849Z,23.53
2023-06-22T21:35:13.035Z,23.52
2023-06-22T21:37:39.955Z,23.47
2023-06-22T21:40:07.915Z,23.44
2023-06-22T21:42:34.485Z,23.41
2023-06-22T21:45:01.265Z,23.38
2023-06-22T21:47:27.835Z,23.34
2023-06-22T21:49:54.380Z,23.32
2023-06-22T21:52:21.208Z,23.26
2023-06-22T21:54:48.091Z,23.23
2023-06-22T21:57:14.661Z,23.21
2023-06-22T21:59:41.212Z,23.17
2023-06-22T22:02:07.904Z,23.15
2023-06-22T22:04:34.445Z,23.14
2023-06-22T22:07:00.903Z,23.12
2023-06-22T22:09:27.340Z,23.09
2023-06-22T22:11:53.808Z,23.08
2023-06-22T22:14:20.371Z,23.08
2023-06-22T22:16:47.209Z,23.07
2023-06-22T22:19:15.780Z,23.05
2023-06-22T22:21:43.585Z,23.03
2023-06-22T22:24:10.413Z,23.00
2023-06-22T22:26:36.920Z,23.01
2023-06-22T22:29:06.390Z,23.00
2023-06-22T22:31:39.569Z,22.97
2023-06-22T22:34:07.201Z,22.96
2023-06-22T22:36:34.282Z,22.95
2023-06-22T22:39:00.869Z,22.92
2023-06-22T22:41:27.991Z,22.92
2023-06-22T22:43:59.166Z,22.91
2023-06-22T22:46:26.851Z,22.90
2023-06-22T22:48:53.391Z,22.87
2023-06-22T22:51:20.044Z,22.86
2023-06-22T22:53:46.736Z,22.85
2023-06-22T22:56:13.357Z,22.81
2023-06-22T22:58:39.866Z,22.82
2023-06-22T23:01:06.446Z,22.82
2023-06-22T23:03:33.009Z,22.79
2023-06-22T23:05:59.975Z,22.78
2023-06-22T23:08:27.617Z,22.76
2023-06-22T23:10:54.504Z,22.74
2023-06-22T23:13:21.036Z,22.73
2023-06-22T23:15:47.508Z,22.71
2023-06-22T23:18:14.047Z,22.70
2023-06-22T23:20:40.496Z,22.69
2023-06-22T23:23:06.967Z,22.65
2023-06-22T23:25:35.392Z,22.65
2023-06-22T23:28:02.439Z,22.63
2023-06-22T23:30:32.412Z,22.61
2023-06-22T23:32:58.936Z,22.57
2023-06-22T23:35:25.660Z,22.57
2023-06-22T23:37:53.676Z,22.54
2023-06-22T23:40:20.608Z,22.53
2023-06-22T23:42:48.516Z,22.51
2023-06-22T23:45:22.807Z,22.50
2023-06-22T23:47:50.478Z,22.47
2023-06-22T23:50:19.071Z,22.46
2023-06-22T23:52:52.310Z,22.44
2023-06-22T23:55:24.221Z,22.42
2023-06-22T23:57:58.154Z,22.40
